sensor_id;sensor_type;location;lat;lon;timestamp;temperature;humidity
36206;DHT22;22242;48.796;9.930;2022-09-17T00:01:36;9.40;99.90
36206;DHT22;22242;48.796;9.930;2022-09-17T00:04:03;9.50;99.90
36206;DHT22;22242;48.796;9.930;2022-09-17T00:06:33;9.60;99.90
36206;DHT22;22242;48.796;9.930;2022-09-17T00:09:00;9.70;99.90
36206;DHT22;22242;48.796;9.930;2022-09-17T00:11:29;9.70;99.90
36206;DHT22;22242;48.796;9.930;2022-09-17T00:13:59;9.60;99.90
36206;DHT22;22242;48.796;9.930;2022-09-17T00:16:30;9.60;99.90
36206;DHT22;22242;48.796;9.930;2022-09-17T00:18:58;9.50;99.90
36206;DHT22;22242;48.796;9.930;2022-09-17T00:21:25;9.40;99.90
36206;DHT22;22242;48.796;9.930;2022-09-17T00:23:53;9.30;99.90
36206;DHT22;22242;48.796;9.930;2022-09-17T00:26:21;9.30;99.90
36206;DHT22;22242;48.796;9.930;2022-09-17T00:28:49;9.30;99.90
36206;DHT22;22242;48.796;9.930;2022-09-17T00:31:16;9.20;99.90
36206;DHT22;22242;48.796;9.930;2022-09-17T00:33:44;9.20;99.90
36206;DHT22;22242;48.796;9.930;2022-09-17T00:36:11;9.10;99.90
36206;DHT22;22242;48.796;9.930;2022-09-17T00:38:38;9.10;99.90
36206;DHT22;22242;48.796;9.930;2022-09-17T00:41:06;9.10;99.90
36206;DHT22;22242;48.796;9.930;2022-09-17T00:43:39;9.00;99.90
36206;DHT22;22242;48.796;9.930;2022-09-17T00:46:15;8.90;99.90
36206;DHT22;22242;48.796;9.930;2022-09-17T00:48:46;8.80;99.90
36206;DHT22;22242;48.796;9.930;2022-09-17T00:51:19;8.70;99.90
36206;DHT22;22242;48.796;9.930;2022-09-17T00:53:46;8.70;99.90
36206;DHT22;22242;48.796;9.930;2022-09-17T00:56:17;8.60;99.90
36206;DHT22;22242;48.796;9.930;2022-09-17T00:58:45;8.60;99.90
36206;DHT22;22242;48.796;9.930;2022-09-17T01:01:13;8.70;99.90
36206;DHT22;22242;48.796;9.930;2022-09-17T01:03:40;8.70;99.90
36206;DHT22;22242;48.796;9.930;2022-09-17T01:06:14;8.60;99.90
36206;DHT22;22242;48.796;9.930;2022-09-17T01:08:52;8.70;99.90
36206;DHT22;22242;48.796;9.930;2022-09-17T01:11:36;8.60;99.90
36206;DHT22;22242;48.796;9.930;2022-09-17T01:14:20;8.50;99.90
36206;DHT22;22242;48.796;9.930;2022-09-17T01:16:55;8.50;99.90
36206;DHT22;22242;48.796;9.930;2022-09-17T01:19:48;8.60;99.90
36206;DHT22;22242;48.796;9.930;2022-09-17T01:22:28;8.60;99.90
36206;DHT22;22242;48.796;9.930;2022-09-17T01:25:16;8.70;99.90
36206;DHT22;22242;48.796;9.930;2022-09-17T01:28:21;8.70;99.90
36206;DHT22;22242;48.796;9.930;2022-09-17T01:31:16;8.70;99.90
36206;DHT22;22242;48.796;9.930;2022-09-17T01:33:51;8.70;99.90
36206;DHT22;22242;48.796;9.930;2022-09-17T01:36:29;8.70;99.90
36206;DHT22;22242;48.796;9.930;2022-09-17T01:39:23;8.70;99.90
36206;DHT22;22242;48.796;9.930;2022-09-17T01:41:57;8.70;99.90
36206;DHT22;22242;48.796;9.930;2022-09-17T01:44:33;8.70;99.90
36206;DHT22;22242;48.796;9.930;2022-09-17T01:47:07;8.70;99.90
36206;DHT22;22242;48.796;9.930;2022-09-17T01:49:37;8.70;99.90
36206;DHT22;22242;48.796;9.930;2022-09-17T01:52:08;8.70;99.90
36206;DHT22;22242;48.796;9.930;2022-09-17T01:54:39;8.80;99.90
36206;DHT22;22242;48.796;9.930;2022-09-17T01:57:11;8.80;99.90
36206;DHT22;22242;48.796;9.930;2022-09-17T01:59:43;8.80;99.90
36206;DHT22;22242;48.796;9.930;2022-09-17T02:02:15;8.90;99.90
36206;DHT22;22242;48.796;9.930;2022-09-17T02:04:47;9.00;99.90
36206;DHT22;22242;48.796;9.930;2022-09-17T02:07:18;9.00;99.90
36206;DHT22;22242;48.796;9.930;2022-09-17T02:09:50;9.00;99.90
36206;DHT22;22242;48.796;9.930;2022-09-17T02:12:27;9.00;99.90
36206;DHT22;22242;48.796;9.930;2022-09-17T02:14:58;9.10;99.90
36206;DHT22;22242;48.796;9.930;2022-09-17T02:17:30;9.00;99.90
36206;DHT22;22242;48.796;9.930;2022-09-17T02:19:58;9.00;99.90
36206;DHT22;22242;48.796;9.930;2022-09-17T02:22:31;9.00;99.90
36206;DHT22;22242;48.796;9.930;2022-09-17T02:25:00;9.00;99.90
36206;DHT22;22242;48.796;9.930;2022-09-17T02:27:37;9.00;99.90
36206;DHT22;22242;48.796;9.930;2022-09-17T02:30:08;9.00;99.90
36206;DHT22;22242;48.796;9.930;2022-09-17T02:32:36;8.90;99.90
36206;DHT22;22242;48.796;9.930;2022-09-17T02:35:04;8.90;99.90
36206;DHT22;22242;48.796;9.930;2022-09-17T02:37:32;9.00;99.90
36206;DHT22;22242;48.796;9.930;2022-09-17T02:39:59;9.00;99.90
36206;DHT22;22242;48.796;9.930;2022-09-17T02:42:30;9.00;99.90
36206;DHT22;22242;48.796;9.930;2022-09-17T02:45:03;9.00;99.90
36206;DHT22;22242;48.796;9.930;2022-09-17T02:47:57;9.10;99.90
36206;DHT22;22242;48.796;9.930;2022-09-17T02:50:33;9.00;99.90
36206;DHT22;22242;48.796;9.930;2022-09-17T02:53:18;9.00;99.90
36206;DHT22;22242;48.796;9.930;2022-09-17T02:55:56;9.10;99.90
36206;DHT22;22242;48.796;9.930;2022-09-17T02:58:28;9.00;99.90
36206;DHT22;22242;48.796;9.930;2022-09-17T03:00:59;9.00;99.90
36206;DHT22;22242;48.796;9.930;2022-09-17T03:03:32;9.10;99.90
36206;DHT22;22242;48.796;9.930;2022-09-17T03:06:01;9.10;99.90
36206;DHT22;22242;48.796;9.930;2022-09-17T03:08:29;9.10;99.90
36206;DHT22;22242;48.796;9.930;2022-09-17T03:10:57;9.00;99.90
36206;DHT22;22242;48.796;9.930;2022-09-17T03:13:25;9.00;99.90
36206;DHT22;22242;48.796;9.930;2022-09-17T03:15:51;9.00;99.90
36206;DHT22;22242;48.796;9.930;2022-09-17T03:18:18;9.00;99.90
36206;DHT22;22242;48.796;9.930;2022-09-17T03:20:46;9.00;99.90
36206;DHT22;22242;48.796;9.930;2022-09-17T03:23:14;9.10;99.90
36206;DHT22;22242;48.796;9.930;2022-09-17T03:25:41;9.10;99.90
36206;DHT22;22242;48.796;9.930;2022-09-17T03:28:09;9.10;99.90
36206;DHT22;22242;48.796;9.930;2022-09-17T03:30:36;9.10;99.90
36206;DHT22;22242;48.796;9.930;2022-09-17T03:33:03;9.00;99.90
36206;DHT22;22242;48.796;9.930;2022-09-17T03:35:30;9.10;99.90
36206;DHT22;22242;48.796;9.930;2022-09-17T03:37:59;9.00;99.90
36206;DHT22;22242;48.796;9.930;2022-09-17T03:40:25;9.00;99.90
36206;DHT22;22242;48.796;9.930;2022-09-17T03:42:53;9.00;99.90
36206;DHT22;22242;48.796;9.930;2022-09-17T03:45:20;8.90;99.90
36206;DHT22;22242;48.796;9.930;2022-09-17T03:47:47;9.00;99.90
36206;DHT22;22242;48.796;9.930;2022-09-17T03:50:14;9.00;99.90
36206;DHT22;22242;48.796;9.930;2022-09-17T03:52:42;9.00;99.90
36206;DHT22;22242;48.796;9.930;2022-09-17T03:55:10;9.00;99.90
36206;DHT22;22242;48.796;9.930;2022-09-17T03:57:37;9.00;99.90
36206;DHT22;22242;48.796;9.930;2022-09-17T04:00:04;9.00;99.90
36206;DHT22;22242;48.796;9.930;2022-09-17T04:02:37;9.10;99.90
36206;DHT22;22242;48.796;9.930;2022-09-17T04:05:05;9.00;99.90
36206;DHT22;22242;48.796;9.930;2022-09-17T04:07:32;8.90;99.90
36206;DHT22;22242;48.796;9.930;2022-09-17T04:09:59;8.90;99.90
36206;DHT22;22242;48.796;9.930;2022-09-17T04:12:27;8.90;99.90
36206;DHT22;22242;48.796;9.930;2022-09-17T04:14:54;8.90;99.90
36206;DHT22;22242;48.796;9.930;2022-09-17T04:17:21;8.90;99.90
36206;DHT22;22242;48.796;9.930;2022-09-17T04:19:48;8.90;99.90
36206;DHT22;22242;48.796;9.930;2022-09-17T04:22:15;8.80;99.90
36206;DHT22;22242;48.796;9.930;2022-09-17T04:24:42;8.90;99.90
36206;DHT22;22242;48.796;9.930;2022-09-17T04:27:09;8.90;99.90
36206;DHT22;22242;48.796;9.930;2022-09-17T04:29:37;8.90;99.90
36206;DHT22;22242;48.796;9.930;2022-09-17T04:32:04;8.80;99.90
36206;DHT22;22242;48.796;9.930;2022-09-17T04:34:31;8.90;99.90
36206;DHT22;22242;48.796;9.930;2022-09-17T04:36:58;8.90;99.90
36206;DHT22;22242;48.796;9.930;2022-09-17T04:39:25;9.00;99.90
36206;DHT22;22242;48.796;9.930;2022-09-17T04:41:52;8.90;99.90
36206;DHT22;22242;48.796;9.930;2022-09-17T04:44:20;8.90;99.90
36206;DHT22;22242;48.796;9.930;2022-09-17T04:46:48;8.80;99.90
36206;DHT22;22242;48.796;9.930;2022-09-17T04:49:15;8.70;99.90
36206;DHT22;22242;48.796;9.930;2022-09-17T04:51:42;8.60;99.90
36206;DHT22;22242;48.796;9.930;2022-09-17T04:54:09;8.70;99.90
36206;DHT22;22242;48.796;9.930;2022-09-17T04:56:35;8.70;99.90
36206;DHT22;22242;48.796;9.930;2022-09-17T04:59:02;8.80;99.90
36206;DHT22;22242;48.796;9.930;2022-09-17T05:01:29;8.80;99.90
36206;DHT22;22242;48.796;9.930;2022-09-17T05:03:57;8.80;99.90
36206;DHT22;22242;48.796;9.930;2022-09-17T05:06:24;8.80;99.90
36206;DHT22;22242;48.796;9.930;2022-09-17T05:08:51;8.80;99.90
36206;DHT22;22242;48.796;9.930;2022-09-17T05:11:18;8.70;99.90
36206;DHT22;22242;48.796;9.930;2022-09-17T05:13:45;8.80;99.90
36206;DHT22;22242;48.796;9.930;2022-09-17T05:16:11;8.80;99.90
36206;DHT22;22242;48.796;9.930;2022-09-17T05:18:38;8.70;99.90
36206;DHT22;22242;48.796;9.930;2022-09-17T05:21:06;8.70;99.90
36206;DHT22;22242;48.796;9.930;2022-09-17T05:23:33;8.70;99.90
36206;DHT22;22242;48.796;9.930;2022-09-17T05:26:00;8.80;99.90
36206;DHT22;22242;48.796;9.930;2022-09-17T05:28:28;8.70;99.90
36206;DHT22;22242;48.796;9.930;2022-09-17T05:30:57;8.70;99.90
36206;DHT22;22242;48.796;9.930;2022-09-17T05:33:24;8.70;99.90
36206;DHT22;22242;48.796;9.930;2022-09-17T05:35:51;8.70;99.90
36206;DHT22;22242;48.796;9.930;2022-09-17T05:38:20;8.70;99.90
36206;DHT22;22242;48.796;9.930;2022-09-17T05:40:47;8.70;99.90
36206;DHT22;22242;48.796;9.930;2022-09-17T05:43:14;8.70;99.90
36206;DHT22;22242;48.796;9.930;2022-09-17T05:45:41;8.70;99.90
36206;DHT22;22242;48.796;9.930;2022-09-17T05:48:10;8.70;99.90
36206;DHT22;22242;48.796;9.930;2022-09-17T05:50:38;8.80;99.90
36206;DHT22;22242;48.796;9.930;2022-09-17T05:53:07;8.80;99.90
36206;DHT22;22242;48.796;9.930;2022-09-17T05:55:37;8.80;99.90
36206;DHT22;22242;48.796;9.930;2022-09-17T05:58:11;8.80;99.90
36206;DHT22;22242;48.796;9.930;2022-09-17T06:00:38;8.90;99.90
36206;DHT22;22242;48.796;9.930;2022-09-17T06:03:05;8.90;99.90
36206;DHT22;22242;48.796;9.930;2022-09-17T06:05:32;8.90;99.90
36206;DHT22;22242;48.796;9.930;2022-09-17T06:07:59;8.90;99.90
36206;DHT22;22242;48.796;9.930;2022-09-17T06:10:26;8.90;99.90
36206;DHT22;22242;48.796;9.930;2022-09-17T06:12:58;8.80;99.90
36206;DHT22;22242;48.796;9.930;2022-09-17T06:15:26;8.90;99.90
36206;DHT22;22242;48.796;9.930;2022-09-17T06:17:53;8.90;99.90
36206;DHT22;22242;48.796;9.930;2022-09-17T06:20:20;8.80;99.90
36206;DHT22;22242;48.796;9.930;2022-09-17T06:22:47;8.70;99.90
36206;DHT22;22242;48.796;9.930;2022-09-17T06:25:14;8.70;99.90
36206;DHT22;22242;48.796;9.930;2022-09-17T06:27:40;8.70;99.90
36206;DHT22;22242;48.796;9.930;2022-09-17T06:30:10;8.70;99.90
36206;DHT22;22242;48.796;9.930;2022-09-17T06:32:37;8.70;99.90
36206;DHT22;22242;48.796;9.930;2022-09-17T06:35:04;8.70;99.90
36206;DHT22;22242;48.796;9.930;2022-09-17T06:37:32;8.70;99.90
36206;DHT22;22242;48.796;9.930;2022-09-17T06:40:01;8.80;99.90
36206;DHT22;22242;48.796;9.930;2022-09-17T06:42:28;8.90;99.90
36206;DHT22;22242;48.796;9.930;2022-09-17T06:44:55;8.90;99.90
36206;DHT22;22242;48.796;9.930;2022-09-17T06:47:24;9.00;99.90
36206;DHT22;22242;48.796;9.930;2022-09-17T06:49:51;9.00;99.90
36206;DHT22;22242;48.796;9.930;2022-09-17T06:52:19;9.00;99.90
36206;DHT22;22242;48.796;9.930;2022-09-17T06:54:46;9.10;99.90
36206;DHT22;22242;48.796;9.930;2022-09-17T06:57:12;9.10;99.90
36206;DHT22;22242;48.796;9.930;2022-09-17T06:59:40;8.90;99.90
36206;DHT22;22242;48.796;9.930;2022-09-17T07:02:07;8.90;99.90
36206;DHT22;22242;48.796;9.930;2022-09-17T07:04:36;8.90;99.90
36206;DHT22;22242;48.796;9.930;2022-09-17T07:07:03;8.80;99.90
36206;DHT22;22242;48.796;9.930;2022-09-17T07:09:31;8.70;99.90
36206;DHT22;22242;48.796;9.930;2022-09-17T07:11:57;8.70;99.90
36206;DHT22;22242;48.796;9.930;2022-09-17T07:14:24;8.90;99.90
36206;DHT22;22242;48.796;9.930;2022-09-17T07:16:51;8.80;99.90
36206;DHT22;22242;48.796;9.930;2022-09-17T07:19:18;8.80;99.90
36206;DHT22;22242;48.796;9.930;2022-09-17T07:21:48;8.80;99.90
36206;DHT22;22242;48.796;9.930;2022-09-17T07:24:15;9.00;99.90
36206;DHT22;22242;48.796;9.930;2022-09-17T07:26:42;8.80;99.90
36206;DHT22;22242;48.796;9.930;2022-09-17T07:29:09;8.80;99.90
36206;DHT22;22242;48.796;9.930;2022-09-17T07:31:36;8.80;99.90
36206;DHT22;22242;48.796;9.930;2022-09-17T07:34:03;8.90;99.90
36206;DHT22;22242;48.796;9.930;2022-09-17T07:36:30;8.80;99.90
36206;DHT22;22242;48.796;9.930;2022-09-17T07:38:58;8.80;99.90
36206;DHT22;22242;48.796;9.930;2022-09-17T07:41:25;8.70;99.90
36206;DHT22;22242;48.796;9.930;2022-09-17T07:43:52;8.70;99.90
36206;DHT22;22242;48.796;9.930;2022-09-17T07:46:20;8.70;99.90
36206;DHT22;22242;48.796;9.930;2022-09-17T07:48:48;8.60;99.90
36206;DHT22;22242;48.796;9.930;2022-09-17T07:51:16;8.70;99.90
36206;DHT22;22242;48.796;9.930;2022-09-17T07:53:43;8.70;99.90
36206;DHT22;22242;48.796;9.930;2022-09-17T07:56:11;8.70;99.90
36206;DHT22;22242;48.796;9.930;2022-09-17T07:58:38;8.60;99.90
36206;DHT22;22242;48.796;9.930;2022-09-17T08:01:08;8.70;99.90
36206;DHT22;22242;48.796;9.930;2022-09-17T08:03:36;8.80;99.90
36206;DHT22;22242;48.796;9.930;2022-09-17T08:06:05;8.90;99.90
36206;DHT22;22242;48.796;9.930;2022-09-17T08:08:33;9.10;99.90
36206;DHT22;22242;48.796;9.930;2022-09-17T08:11:02;9.30;99.90
36206;DHT22;22242;48.796;9.930;2022-09-17T08:13:30;9.20;99.90
36206;DHT22;22242;48.796;9.930;2022-09-17T08:15:58;9.20;99.90
36206;DHT22;22242;48.796;9.930;2022-09-17T08:18:26;9.40;99.90
36206;DHT22;22242;48.796;9.930;2022-09-17T08:20:56;9.20;99.90
36206;DHT22;22242;48.796;9.930;2022-09-17T08:23:24;9.40;99.90
36206;DHT22;22242;48.796;9.930;2022-09-17T08:25:52;9.60;99.90
36206;DHT22;22242;48.796;9.930;2022-09-17T08:28:20;9.50;99.90
36206;DHT22;22242;48.796;9.930;2022-09-17T08:30:48;9.40;99.90
36206;DHT22;22242;48.796;9.930;2022-09-17T08:33:15;9.40;99.90
36206;DHT22;22242;48.796;9.930;2022-09-17T08:35:42;9.20;99.90
36206;DHT22;22242;48.796;9.930;2022-09-17T08:38:09;9.20;99.90
36206;DHT22;22242;48.796;9.930;2022-09-17T08:40:44;9.30;99.90
36206;DHT22;22242;48.796;9.930;2022-09-17T08:43:16;9.10;99.90
36206;DHT22;22242;48.796;9.930;2022-09-17T08:45:52;9.20;99.90
36206;DHT22;22242;48.796;9.930;2022-09-17T08:48:20;9.40;99.90
36206;DHT22;22242;48.796;9.930;2022-09-17T08:50:48;9.60;99.90
36206;DHT22;22242;48.796;9.930;2022-09-17T08:53:29;9.60;99.90
36206;DHT22;22242;48.796;9.930;2022-09-17T08:56:04;9.60;99.90
36206;DHT22;22242;48.796;9.930;2022-09-17T08:58:50;9.70;99.90
36206;DHT22;22242;48.796;9.930;2022-09-17T09:01:28;9.70;99.90
36206;DHT22;22242;48.796;9.930;2022-09-17T09:04:09;9.70;99.90
36206;DHT22;22242;48.796;9.930;2022-09-17T09:06:44;9.70;99.90
36206;DHT22;22242;48.796;9.930;2022-09-17T09:09:15;9.60;99.90
36206;DHT22;22242;48.796;9.930;2022-09-17T09:11:43;9.50;99.90
36206;DHT22;22242;48.796;9.930;2022-09-17T09:14:17;9.30;99.90
36206;DHT22;22242;48.796;9.930;2022-09-17T09:16:47;9.40;99.90
36206;DHT22;22242;48.796;9.930;2022-09-17T09:19:20;9.30;99.90
36206;DHT22;22242;48.796;9.930;2022-09-17T09:21:59;9.20;99.90
36206;DHT22;22242;48.796;9.930;2022-09-17T09:24:35;9.30;99.90
36206;DHT22;22242;48.796;9.930;2022-09-17T09:27:14;9.20;99.90
36206;DHT22;22242;48.796;9.930;2022-09-17T09:29:51;9.50;99.90
36206;DHT22;22242;48.796;9.930;2022-09-17T09:32:30;9.40;99.90
36206;DHT22;22242;48.796;9.930;2022-09-17T09:35:01;9.40;99.90
36206;DHT22;22242;48.796;9.930;2022-09-17T09:37:34;9.30;99.90
36206;DHT22;22242;48.796;9.930;2022-09-17T09:40:18;9.40;99.90
36206;DHT22;22242;48.796;9.930;2022-09-17T09:42:52;9.20;99.90
36206;DHT22;22242;48.796;9.930;2022-09-17T09:45:37;9.00;99.90
36206;DHT22;22242;48.796;9.930;2022-09-17T09:48:15;9.10;99.90
36206;DHT22;22242;48.796;9.930;2022-09-17T09:50:49;9.10;99.90
36206;DHT22;22242;48.796;9.930;2022-09-17T09:53:28;9.10;99.90
36206;DHT22;22242;48.796;9.930;2022-09-17T09:56:09;9.10;99.90
36206;DHT22;22242;48.796;9.930;2022-09-17T09:58:40;9.20;99.90
36206;DHT22;22242;48.796;9.930;2022-09-17T10:01:11;9.20;99.90
36206;DHT22;22242;48.796;9.930;2022-09-17T10:03:42;9.30;99.90
36206;DHT22;22242;48.796;9.930;2022-09-17T10:06:11;9.90;99.90
36206;DHT22;22242;48.796;9.930;2022-09-17T10:08:40;11.10;99.90
36206;DHT22;22242;48.796;9.930;2022-09-17T10:11:19;11.40;99.90
36206;DHT22;22242;48.796;9.930;2022-09-17T10:13:47;11.50;99.90
36206;DHT22;22242;48.796;9.930;2022-09-17T10:16:16;11.50;99.90
36206;DHT22;22242;48.796;9.930;2022-09-17T10:18:45;11.20;99.90
36206;DHT22;22242;48.796;9.930;2022-09-17T10:21:19;11.00;99.90
36206;DHT22;22242;48.796;9.930;2022-09-17T10:23:46;10.80;99.90
36206;DHT22;22242;48.796;9.930;2022-09-17T10:26:21;10.90;99.90
36206;DHT22;22242;48.796;9.930;2022-09-17T10:28:51;10.80;99.90
36206;DHT22;22242;48.796;9.930;2022-09-17T10:31:19;10.80;99.90
36206;DHT22;22242;48.796;9.930;2022-09-17T10:33:52;10.60;99.90
36206;DHT22;22242;48.796;9.930;2022-09-17T10:36:38;10.80;99.90
36206;DHT22;22242;48.796;9.930;2022-09-17T10:39:21;10.90;99.90
36206;DHT22;22242;48.796;9.930;2022-09-17T10:41:53;10.80;99.90
36206;DHT22;22242;48.796;9.930;2022-09-17T10:44:24;10.90;99.90
36206;DHT22;22242;48.796;9.930;2022-09-17T10:46:51;10.90;99.90
36206;DHT22;22242;48.796;9.930;2022-09-17T10:49:30;11.00;99.90
36206;DHT22;22242;48.796;9.930;2022-09-17T10:52:13;11.50;99.90
36206;DHT22;22242;48.796;9.930;2022-09-17T10:58:08;11.80;99.90
36206;DHT22;22242;48.796;9.930;2022-09-17T11:00:45;11.60;99.90
36206;DHT22;22242;48.796;9.930;2022-09-17T11:03:46;11.90;99.90
36206;DHT22;22242;48.796;9.930;2022-09-17T11:06:28;12.90;99.90
36206;DHT22;22242;48.796;9.930;2022-09-17T11:09:09;14.40;99.90
36206;DHT22;22242;48.796;9.930;2022-09-17T11:11:51;14.70;99.90
36206;DHT22;22242;48.796;9.930;2022-09-17T11:14:36;13.60;99.90
36206;DHT22;22242;48.796;9.930;2022-09-17T11:17:12;13.30;99.90
36206;DHT22;22242;48.796;9.930;2022-09-17T11:19:50;12.80;99.90
36206;DHT22;22242;48.796;9.930;2022-09-17T11:22:25;12.60;99.90
36206;DHT22;22242;48.796;9.930;2022-09-17T11:25:04;12.40;99.90
36206;DHT22;22242;48.796;9.930;2022-09-17T11:27:48;12.60;99.90
36206;DHT22;22242;48.796;9.930;2022-09-17T11:30:20;12.90;99.90
36206;DHT22;22242;48.796;9.930;2022-09-17T11:33:04;12.90;99.90
36206;DHT22;22242;48.796;9.930;2022-09-17T11:35:34;13.20;99.90
36206;DHT22;22242;48.796;9.930;2022-09-17T11:38:06;13.20;99.90
36206;DHT22;22242;48.796;9.930;2022-09-17T11:40:39;14.10;99.90
36206;DHT22;22242;48.796;9.930;2022-09-17T11:43:17;14.10;99.90
36206;DHT22;22242;48.796;9.930;2022-09-17T11:45:54;13.40;99.90
36206;DHT22;22242;48.796;9.930;2022-09-17T11:48:26;13.00;99.90
36206;DHT22;22242;48.796;9.930;2022-09-17T11:51:01;12.50;99.90
36206;DHT22;22242;48.796;9.930;2022-09-17T11:53:36;11.80;99.90
36206;DHT22;22242;48.796;9.930;2022-09-17T11:56:10;11.50;99.90
36206;DHT22;22242;48.796;9.930;2022-09-17T11:58:43;11.30;99.90
36206;DHT22;22242;48.796;9.930;2022-09-17T12:01:15;11.30;99.90
36206;DHT22;22242;48.796;9.930;2022-09-17T12:03:52;11.40;99.90
36206;DHT22;22242;48.796;9.930;2022-09-17T12:06:27;11.30;99.90
36206;DHT22;22242;48.796;9.930;2022-09-17T12:09:00;11.50;99.90
36206;DHT22;22242;48.796;9.930;2022-09-17T12:11:33;11.80;99.90
36206;DHT22;22242;48.796;9.930;2022-09-17T12:14:05;11.70;99.90
36206;DHT22;22242;48.796;9.930;2022-09-17T12:16:37;11.40;99.90
36206;DHT22;22242;48.796;9.930;2022-09-17T12:19:11;11.20;99.90
36206;DHT22;22242;48.796;9.930;2022-09-17T12:21:44;10.80;99.90
36206;DHT22;22242;48.796;9.930;2022-09-17T12:24:20;10.40;99.90
36206;DHT22;22242;48.796;9.930;2022-09-17T12:26:58;10.20;99.90
36206;DHT22;22242;48.796;9.930;2022-09-17T12:29:48;10.30;99.90
36206;DHT22;22242;48.796;9.930;2022-09-17T12:35:15;10.80;99.90
36206;DHT22;22242;48.796;9.930;2022-09-17T12:37:52;10.90;99.90
36206;DHT22;22242;48.796;9.930;2022-09-17T12:40:27;11.30;99.90
36206;DHT22;22242;48.796;9.930;2022-09-17T12:43:12;11.20;99.90
36206;DHT22;22242;48.796;9.930;2022-09-17T12:45:59;11.20;99.90
36206;DHT22;22242;48.796;9.930;2022-09-17T12:54:53;11.30;99.90
36206;DHT22;22242;48.796;9.930;2022-09-17T12:57:33;11.20;99.90
36206;DHT22;22242;48.796;9.930;2022-09-17T13:00:04;11.30;99.90
36206;DHT22;22242;48.796;9.930;2022-09-17T13:02:41;11.50;99.90
36206;DHT22;22242;48.796;9.930;2022-09-17T13:05:43;11.60;99.90
36206;DHT22;22242;48.796;9.930;2022-09-17T13:11:30;11.70;99.90
36206;DHT22;22242;48.796;9.930;2022-09-17T13:14:08;11.70;99.90
36206;DHT22;22242;48.796;9.930;2022-09-17T13:16:40;11.20;99.90
36206;DHT22;22242;48.796;9.930;2022-09-17T13:19:18;11.10;99.90
36206;DHT22;22242;48.796;9.930;2022-09-17T13:21:52;10.90;99.90
36206;DHT22;22242;48.796;9.930;2022-09-17T13:24:21;10.80;99.90
36206;DHT22;22242;48.796;9.930;2022-09-17T13:26:50;10.60;99.90
36206;DHT22;22242;48.796;9.930;2022-09-17T13:29:57;10.30;99.90
36206;DHT22;22242;48.796;9.930;2022-09-17T13:32:48;10.50;99.90
36206;DHT22;22242;48.796;9.930;2022-09-17T13:35:46;10.40;99.90
36206;DHT22;22242;48.796;9.930;2022-09-17T13:38:13;10.20;99.90
36206;DHT22;22242;48.796;9.930;2022-09-17T13:40:41;9.80;99.90
36206;DHT22;22242;48.796;9.930;2022-09-17T13:43:10;9.00;99.90
36206;DHT22;22242;48.796;9.930;2022-09-17T13:46:10;8.70;99.90
36206;DHT22;22242;48.796;9.930;2022-09-17T13:48:46;8.60;99.90
36206;DHT22;22242;48.796;9.930;2022-09-17T13:51:41;8.60;99.90
36206;DHT22;22242;48.796;9.930;2022-09-17T13:54:09;8.60;99.90
36206;DHT22;22242;48.796;9.930;2022-09-17T13:56:38;8.50;99.90
36206;DHT22;22242;48.796;9.930;2022-09-17T13:59:08;8.60;99.90
36206;DHT22;22242;48.796;9.930;2022-09-17T14:01:56;8.80;99.90
36206;DHT22;22242;48.796;9.930;2022-09-17T14:07:34;8.90;99.90
36206;DHT22;22242;48.796;9.930;2022-09-17T14:10:39;9.20;99.90
36206;DHT22;22242;48.796;9.930;2022-09-17T14:13:27;9.30;99.90
36206;DHT22;22242;48.796;9.930;2022-09-17T14:16:00;9.50;99.90
36206;DHT22;22242;48.796;9.930;2022-09-17T14:18:38;9.70;99.90
36206;DHT22;22242;48.796;9.930;2022-09-17T14:21:15;10.00;99.90
36206;DHT22;22242;48.796;9.930;2022-09-17T14:23:46;10.20;99.90
36206;DHT22;22242;48.796;9.930;2022-09-17T14:26:23;10.30;99.90
36206;DHT22;22242;48.796;9.930;2022-09-17T14:28:57;10.30;99.90
36206;DHT22;22242;48.796;9.930;2022-09-17T14:31:32;10.90;99.90
36206;DHT22;22242;48.796;9.930;2022-09-17T14:34:04;11.20;99.90
36206;DHT22;22242;48.796;9.930;2022-09-17T14:36:34;10.90;99.90
36206;DHT22;22242;48.796;9.930;2022-09-17T14:39:04;10.70;99.90
36206;DHT22;22242;48.796;9.930;2022-09-17T14:41:39;10.70;99.90
36206;DHT22;22242;48.796;9.930;2022-09-17T14:44:12;11.00;99.90
36206;DHT22;22242;48.796;9.930;2022-09-17T14:46:43;11.20;99.90
36206;DHT22;22242;48.796;9.930;2022-09-17T14:49:20;11.10;99.90
36206;DHT22;22242;48.796;9.930;2022-09-17T14:51:47;11.00;99.90
36206;DHT22;22242;48.796;9.930;2022-09-17T14:54:17;10.90;99.90
36206;DHT22;22242;48.796;9.930;2022-09-17T14:56:56;10.70;99.90
36206;DHT22;22242;48.796;9.930;2022-09-17T14:59:28;10.70;99.90
36206;DHT22;22242;48.796;9.930;2022-09-17T15:02:00;10.80;99.90
36206;DHT22;22242;48.796;9.930;2022-09-17T15:04:28;10.90;99.90
36206;DHT22;22242;48.796;9.930;2022-09-17T15:07:06;11.20;99.90
36206;DHT22;22242;48.796;9.930;2022-09-17T15:09:33;11.20;99.90
36206;DHT22;22242;48.796;9.930;2022-09-17T15:12:00;11.00;99.90
36206;DHT22;22242;48.796;9.930;2022-09-17T15:14:28;11.00;99.90
36206;DHT22;22242;48.796;9.930;2022-09-17T15:16:58;10.80;99.90
36206;DHT22;22242;48.796;9.930;2022-09-17T15:19:30;10.80;99.90
36206;DHT22;22242;48.796;9.930;2022-09-17T15:22:00;10.80;99.90
36206;DHT22;22242;48.796;9.930;2022-09-17T15:24:36;10.80;99.90
36206;DHT22;22242;48.796;9.930;2022-09-17T15:27:10;10.90;99.90
36206;DHT22;22242;48.796;9.930;2022-09-17T15:29:42;10.90;99.90
36206;DHT22;22242;48.796;9.930;2022-09-17T15:32:11;10.70;99.90
36206;DHT22;22242;48.796;9.930;2022-09-17T15:34:40;10.50;99.90
36206;DHT22;22242;48.796;9.930;2022-09-17T15:37:16;10.70;99.90
36206;DHT22;22242;48.796;9.930;2022-09-17T15:39:47;10.70;99.90
36206;DHT22;22242;48.796;9.930;2022-09-17T15:42:21;10.90;99.90
36206;DHT22;22242;48.796;9.930;2022-09-17T15:44:49;10.90;99.90
36206;DHT22;22242;48.796;9.930;2022-09-17T15:47:43;10.90;99.90
36206;DHT22;22242;48.796;9.930;2022-09-17T15:50:17;10.90;99.90
36206;DHT22;22242;48.796;9.930;2022-09-17T15:52:45;11.00;99.90
36206;DHT22;22242;48.796;9.930;2022-09-17T15:55:33;11.00;99.90
36206;DHT22;22242;48.796;9.930;2022-09-17T15:58:03;10.90;99.90
36206;DHT22;22242;48.796;9.930;2022-09-17T16:00:30;11.10;99.90
36206;DHT22;22242;48.796;9.930;2022-09-17T16:02:57;11.10;99.90
36206;DHT22;22242;48.796;9.930;2022-09-17T16:05:48;11.00;99.90
36206;DHT22;22242;48.796;9.930;2022-09-17T16:08:22;11.00;99.90
36206;DHT22;22242;48.796;9.930;2022-09-17T16:10:50;10.90;99.90
36206;DHT22;22242;48.796;9.930;2022-09-17T16:13:17;10.90;99.90
36206;DHT22;22242;48.796;9.930;2022-09-17T16:15:52;10.90;99.90
36206;DHT22;22242;48.796;9.930;2022-09-17T16:18:19;10.90;99.90
36206;DHT22;22242;48.796;9.930;2022-09-17T16:20:47;10.70;99.90
36206;DHT22;22242;48.796;9.930;2022-09-17T16:23:14;10.60;99.90
36206;DHT22;22242;48.796;9.930;2022-09-17T16:25:41;10.50;99.90
36206;DHT22;22242;48.796;9.930;2022-09-17T16:28:11;10.40;99.90
36206;DHT22;22242;48.796;9.930;2022-09-17T16:30:42;10.30;99.90